sensor_id;sensor_type;location;lat;lon;timestamp;P1;durP1;ratioP1;P2;durP2;ratioP2
11797;SDS011;5956;51.428;6.682;2024-02-28T00:02:02;36.57;;;22.43;;
11797;SDS011;5956;51.428;6.682;2024-02-28T00:04:28;36.20;;;23.60;;
11797;SDS011;5956;51.428;6.682;2024-02-28T00:06:55;33.97;;;22.73;;
11797;SDS011;5956;51.428;6.682;2024-02-28T00:09:22;30.60;;;21.47;;
11797;SDS011;5956;51.428;6.682;2024-02-28T00:11:48;29.57;;;22.17;;
11797;SDS011;5956;51.428;6.682;2024-02-28T00:14:15;31.10;;;21.57;;
11797;SDS011;5956;51.428;6.682;2024-02-28T00:16:44;35.57;;;22.23;;
11797;SDS011;5956;51.428;6.682;2024-02-28T00:19:11;31.80;;;22.40;;
11797;SDS011;5956;51.428;6.682;2024-02-28T00:21:38;32.37;;;21.50;;
11797;SDS011;5956;51.428;6.682;2024-02-28T00:24:05;31.67;;;22.23;;
11797;SDS011;5956;51.428;6.682;2024-02-28T00:26:32;30.30;;;21.50;;
11797;SDS011;5956;51.428;6.682;2024-02-28T00:28:59;35.47;;;22.67;;
11797;SDS011;5956;51.428;6.682;2024-02-28T00:31:25;30.73;;;21.70;;
11797;SDS011;5956;51.428;6.682;2024-02-28T00:33:53;32.00;;;21.77;;
11797;SDS011;5956;51.428;6.682;2024-02-28T00:36:20;32.23;;;20.37;;
11797;SDS011;5956;51.428;6.682;2024-02-28T00:38:47;31.67;;;21.40;;
11797;SDS011;5956;51.428;6.682;2024-02-28T00:41:14;35.13;;;22.33;;
11797;SDS011;5956;51.428;6.682;2024-02-28T00:43:40;32.67;;;21.43;;
11797;SDS011;5956;51.428;6.682;2024-02-28T00:46:07;33.93;;;23.23;;
11797;SDS011;5956;51.428;6.682;2024-02-28T00:48:37;34.33;;;22.40;;
11797;SDS011;5956;51.428;6.682;2024-02-28T00:51:05;33.27;;;22.93;;
11797;SDS011;5956;51.428;6.682;2024-02-28T00:53:33;35.13;;;23.27;;
11797;SDS011;5956;51.428;6.682;2024-02-28T00:56:00;32.97;;;23.23;;
11797;SDS011;5956;51.428;6.682;2024-02-28T00:58:26;36.47;;;22.73;;
11797;SDS011;5956;51.428;6.682;2024-02-28T01:00:55;35.63;;;22.13;;
11797;SDS011;5956;51.428;6.682;2024-02-28T01:03:21;34.47;;;23.53;;
11797;SDS011;5956;51.428;6.682;2024-02-28T01:05:48;31.90;;;21.43;;
11797;SDS011;5956;51.428;6.682;2024-02-28T01:08:17;32.60;;;22.43;;
11797;SDS011;5956;51.428;6.682;2024-02-28T01:10:44;34.33;;;22.63;;
11797;SDS011;5956;51.428;6.682;2024-02-28T01:13:10;35.10;;;22.87;;
11797;SDS011;5956;51.428;6.682;2024-02-28T01:15:39;35.43;;;22.87;;
11797;SDS011;5956;51.428;6.682;2024-02-28T01:18:06;41.17;;;24.33;;
11797;SDS011;5956;51.428;6.682;2024-02-28T01:20:32;34.93;;;22.27;;
11797;SDS011;5956;51.428;6.682;2024-02-28T01:22:59;33.27;;;21.40;;
11797;SDS011;5956;51.428;6.682;2024-02-28T01:25:27;28.97;;;20.13;;
11797;SDS011;5956;51.428;6.682;2024-02-28T01:27:55;32.77;;;21.70;;
11797;SDS011;5956;51.428;6.682;2024-02-28T01:30:23;32.07;;;21.80;;
11797;SDS011;5956;51.428;6.682;2024-02-28T01:32:49;27.77;;;20.87;;
11797;SDS011;5956;51.428;6.682;2024-02-28T01:35:16;30.97;;;21.23;;
11797;SDS011;5956;51.428;6.682;2024-02-28T01:37:43;33.30;;;21.90;;
11797;SDS011;5956;51.428;6.682;2024-02-28T01:40:10;30.03;;;21.03;;
11797;SDS011;5956;51.428;6.682;2024-02-28T01:42:39;32.10;;;21.57;;
11797;SDS011;5956;51.428;6.682;2024-02-28T01:45:06;30.63;;;22.07;;
11797;SDS011;5956;51.428;6.682;2024-02-28T01:47:34;36.87;;;23.27;;
11797;SDS011;5956;51.428;6.682;2024-02-28T01:50:00;33.27;;;21.87;;
11797;SDS011;5956;51.428;6.682;2024-02-28T01:52:27;34.90;;;21.43;;
11797;SDS011;5956;51.428;6.682;2024-02-28T01:54:54;31.47;;;20.87;;
11797;SDS011;5956;51.428;6.682;2024-02-28T01:57:21;33.97;;;21.77;;
11797;SDS011;5956;51.428;6.682;2024-02-28T01:59:49;32.33;;;21.63;;
11797;SDS011;5956;51.428;6.682;2024-02-28T02:02:16;32.63;;;20.70;;
11797;SDS011;5956;51.428;6.682;2024-02-28T02:04:42;32.13;;;21.33;;
11797;SDS011;5956;51.428;6.682;2024-02-28T02:07:09;29.80;;;20.33;;
11797;SDS011;5956;51.428;6.682;2024-02-28T02:09:36;33.53;;;21.63;;
11797;SDS011;5956;51.428;6.682;2024-02-28T02:12:03;32.47;;;21.10;;
11797;SDS011;5956;51.428;6.682;2024-02-28T02:14:30;29.93;;;21.30;;
11797;SDS011;5956;51.428;6.682;2024-02-28T02:16:58;35.33;;;21.63;;
11797;SDS011;5956;51.428;6.682;2024-02-28T02:19:25;33.23;;;20.80;;
11797;SDS011;5956;51.428;6.682;2024-02-28T02:21:52;37.53;;;23.27;;
11797;SDS011;5956;51.428;6.682;2024-02-28T02:24:20;33.17;;;22.57;;
11797;SDS011;5956;51.428;6.682;2024-02-28T02:26:47;36.57;;;21.50;;
11797;SDS011;5956;51.428;6.682;2024-02-28T02:29:14;33.03;;;21.27;;
11797;SDS011;5956;51.428;6.682;2024-02-28T02:31:40;38.90;;;23.57;;
11797;SDS011;5956;51.428;6.682;2024-02-28T02:34:07;50.13;;;28.07;;
11797;SDS011;5956;51.428;6.682;2024-02-28T02:36:34;61.33;;;28.90;;
11797;SDS011;5956;51.428;6.682;2024-02-28T02:39:00;59.13;;;29.87;;
11797;SDS011;5956;51.428;6.682;2024-02-28T02:41:29;63.03;;;30.67;;
11797;SDS011;5956;51.428;6.682;2024-02-28T02:43:55;53.60;;;31.97;;
11797;SDS011;5956;51.428;6.682;2024-02-28T02:46:23;56.87;;;31.27;;
11797;SDS011;5956;51.428;6.682;2024-02-28T02:48:49;64.77;;;34.67;;
11797;SDS011;5956;51.428;6.682;2024-02-28T02:51:18;64.80;;;32.53;;
11797;SDS011;5956;51.428;6.682;2024-02-28T02:53:45;60.70;;;32.63;;
11797;SDS011;5956;51.428;6.682;2024-02-28T02:56:11;65.10;;;32.63;;
11797;SDS011;5956;51.428;6.682;2024-02-28T02:58:39;65.60;;;32.57;;
11797;SDS011;5956;51.428;6.682;2024-02-28T03:01:06;57.53;;;32.23;;
11797;SDS011;5956;51.428;6.682;2024-02-28T03:03:33;63.57;;;32.83;;
11797;SDS011;5956;51.428;6.682;2024-02-28T03:06:02;59.30;;;31.60;;
11797;SDS011;5956;51.428;6.682;2024-02-28T03:08:30;56.57;;;31.70;;
11797;SDS011;5956;51.428;6.682;2024-02-28T03:10:57;59.27;;;30.47;;
11797;SDS011;5956;51.428;6.682;2024-02-28T03:13:24;50.23;;;31.43;;
11797;SDS011;5956;51.428;6.682;2024-02-28T03:15:52;61.83;;;33.83;;
11797;SDS011;5956;51.428;6.682;2024-02-28T03:18:19;53.00;;;31.27;;
11797;SDS011;5956;51.428;6.682;2024-02-28T03:20:46;65.23;;;32.83;;
11797;SDS011;5956;51.428;6.682;2024-02-28T03:23:15;64.13;;;32.77;;
11797;SDS011;5956;51.428;6.682;2024-02-28T03:25:42;61.67;;;30.63;;
11797;SDS011;5956;51.428;6.682;2024-02-28T03:28:08;59.00;;;32.40;;
11797;SDS011;5956;51.428;6.682;2024-02-28T03:30:35;55.40;;;31.27;;
11797;SDS011;5956;51.428;6.682;2024-02-28T03:33:04;57.63;;;30.10;;
11797;SDS011;5956;51.428;6.682;2024-02-28T03:35:31;49.73;;;30.97;;
11797;SDS011;5956;51.428;6.682;2024-02-28T03:37:57;50.87;;;30.87;;
11797;SDS011;5956;51.428;6.682;2024-02-28T03:40:24;60.57;;;31.90;;
11797;SDS011;5956;51.428;6.682;2024-02-28T03:42:51;58.07;;;32.10;;
11797;SDS011;5956;51.428;6.682;2024-02-28T03:45:18;60.63;;;32.93;;
11797;SDS011;5956;51.428;6.682;2024-02-28T03:47:45;62.27;;;32.63;;
11797;SDS011;5956;51.428;6.682;2024-02-28T03:50:13;58.00;;;31.83;;
11797;SDS011;5956;51.428;6.682;2024-02-28T03:52:40;58.17;;;32.93;;
11797;SDS011;5956;51.428;6.682;2024-02-28T03:55:07;63.57;;;34.17;;
11797;SDS011;5956;51.428;6.682;2024-02-28T03:57:35;73.47;;;37.67;;
11797;SDS011;5956;51.428;6.682;2024-02-28T04:00:01;68.43;;;38.50;;
11797;SDS011;5956;51.428;6.682;2024-02-28T04:02:31;70.77;;;36.73;;
11797;SDS011;5956;51.428;6.682;2024-02-28T04:04:58;76.77;;;39.00;;
11797;SDS011;5956;51.428;6.682;2024-02-28T04:07:26;71.93;;;39.30;;
11797;SDS011;5956;51.428;6.682;2024-02-28T04:09:53;67.00;;;39.30;;
11797;SDS011;5956;51.428;6.682;2024-02-28T04:12:19;94.90;;;40.33;;
11797;SDS011;5956;51.428;6.682;2024-02-28T04:14:46;87.20;;;42.10;;
11797;SDS011;5956;51.428;6.682;2024-02-28T04:17:13;76.07;;;39.37;;
11797;SDS011;5956;51.428;6.682;2024-02-28T04:19:40;72.63;;;41.53;;
11797;SDS011;5956;51.428;6.682;2024-02-28T04:22:08;68.40;;;40.57;;
11797;SDS011;5956;51.428;6.682;2024-02-28T04:24:36;67.93;;;40.30;;
11797;SDS011;5956;51.428;6.682;2024-02-28T04:27:03;70.23;;;40.23;;
11797;SDS011;5956;51.428;6.682;2024-02-28T04:29:31;118.13;;;43.10;;
11797;SDS011;5956;51.428;6.682;2024-02-28T04:31:57;67.80;;;40.23;;
11797;SDS011;5956;51.428;6.682;2024-02-28T04:34:24;129.73;;;43.67;;
11797;SDS011;5956;51.428;6.682;2024-02-28T04:36:51;70.90;;;40.57;;
11797;SDS011;5956;51.428;6.682;2024-02-28T04:39:17;72.83;;;42.13;;
11797;SDS011;5956;51.428;6.682;2024-02-28T04:41:46;67.73;;;40.90;;
11797;SDS011;5956;51.428;6.682;2024-02-28T04:44:12;65.60;;;40.53;;
11797;SDS011;5956;51.428;6.682;2024-02-28T04:46:39;63.63;;;37.70;;
11797;SDS011;5956;51.428;6.682;2024-02-28T04:49:06;75.20;;;40.37;;
11797;SDS011;5956;51.428;6.682;2024-02-28T04:51:34;61.20;;;39.23;;
11797;SDS011;5956;51.428;6.682;2024-02-28T04:54:01;66.10;;;40.20;;
11797;SDS011;5956;51.428;6.682;2024-02-28T04:56:28;84.80;;;41.33;;
11797;SDS011;5956;51.428;6.682;2024-02-28T04:58:56;66.67;;;40.00;;
11797;SDS011;5956;51.428;6.682;2024-02-28T05:01:22;78.17;;;41.00;;
11797;SDS011;5956;51.428;6.682;2024-02-28T05:03:49;69.67;;;39.57;;
11797;SDS011;5956;51.428;6.682;2024-02-28T05:06:16;63.03;;;39.87;;
11797;SDS011;5956;51.428;6.682;2024-02-28T05:08:43;71.07;;;41.07;;
11797;SDS011;5956;51.428;6.682;2024-02-28T05:11:10;71.10;;;42.83;;
11797;SDS011;5956;51.428;6.682;2024-02-28T05:13:36;73.93;;;40.80;;
11797;SDS011;5956;51.428;6.682;2024-02-28T05:16:05;73.30;;;42.53;;
11797;SDS011;5956;51.428;6.682;2024-02-28T05:18:38;78.13;;;41.87;;
11797;SDS011;5956;51.428;6.682;2024-02-28T05:21:05;71.67;;;43.20;;
11797;SDS011;5956;51.428;6.682;2024-02-28T05:23:32;68.70;;;43.17;;
11797;SDS011;5956;51.428;6.682;2024-02-28T05:25:59;88.10;;;41.63;;
11797;SDS011;5956;51.428;6.682;2024-02-28T05:28:29;77.23;;;44.33;;
11797;SDS011;5956;51.428;6.682;2024-02-28T05:30:55;73.43;;;43.77;;
11797;SDS011;5956;51.428;6.682;2024-02-28T05:33:24;83.30;;;44.63;;
11797;SDS011;5956;51.428;6.682;2024-02-28T05:35:50;96.53;;;46.53;;
11797;SDS011;5956;51.428;6.682;2024-02-28T05:38:17;77.13;;;45.17;;
11797;SDS011;5956;51.428;6.682;2024-02-28T05:40:44;73.10;;;44.87;;
11797;SDS011;5956;51.428;6.682;2024-02-28T05:43:11;80.97;;;46.13;;
11797;SDS011;5956;51.428;6.682;2024-02-28T05:45:38;70.87;;;45.17;;
11797;SDS011;5956;51.428;6.682;2024-02-28T05:48:05;77.20;;;44.13;;
11797;SDS011;5956;51.428;6.682;2024-02-28T05:50:33;79.23;;;46.77;;
11797;SDS011;5956;51.428;6.682;2024-02-28T05:53:00;73.33;;;45.43;;
11797;SDS011;5956;51.428;6.682;2024-02-28T05:55:27;78.23;;;44.33;;
11797;SDS011;5956;51.428;6.682;2024-02-28T05:57:54;81.50;;;46.20;;
11797;SDS011;5956;51.428;6.682;2024-02-28T06:00:20;115.07;;;48.70;;
11797;SDS011;5956;51.428;6.682;2024-02-28T06:02:47;80.57;;;47.80;;
11797;SDS011;5956;51.428;6.682;2024-02-28T06:05:14;76.57;;;45.83;;
11797;SDS011;5956;51.428;6.682;2024-02-28T06:07:42;83.43;;;46.60;;
11797;SDS011;5956;51.428;6.682;2024-02-28T06:10:09;78.37;;;48.47;;
11797;SDS011;5956;51.428;6.682;2024-02-28T06:12:36;85.17;;;48.00;;
11797;SDS011;5956;51.428;6.682;2024-02-28T06:15:04;99.20;;;60.90;;
11797;SDS011;5956;51.428;6.682;2024-02-28T06:17:32;76.90;;;45.07;;
11797;SDS011;5956;51.428;6.682;2024-02-28T06:19:59;73.57;;;45.20;;
11797;SDS011;5956;51.428;6.682;2024-02-28T06:22:26;77.30;;;45.43;;
11797;SDS011;5956;51.428;6.682;2024-02-28T06:24:56;73.63;;;44.67;;
11797;SDS011;5956;51.428;6.682;2024-02-28T06:27:52;113.57;;;48.77;;
11797;SDS011;5956;51.428;6.682;2024-02-28T06:30:19;164.57;;;52.30;;
11797;SDS011;5956;51.428;6.682;2024-02-28T06:32:46;80.23;;;47.10;;
11797;SDS011;5956;51.428;6.682;2024-02-28T06:35:13;96.67;;;45.20;;
11797;SDS011;5956;51.428;6.682;2024-02-28T06:37:41;70.83;;;43.00;;
11797;SDS011;5956;51.428;6.682;2024-02-28T06:40:11;77.33;;;43.03;;
11797;SDS011;5956;51.428;6.682;2024-02-28T06:42:38;83.90;;;42.00;;
11797;SDS011;5956;51.428;6.682;2024-02-28T06:45:05;77.33;;;42.63;;
11797;SDS011;5956;51.428;6.682;2024-02-28T06:47:33;70.23;;;40.00;;
11797;SDS011;5956;51.428;6.682;2024-02-28T06:50:01;74.57;;;43.43;;
11797;SDS011;5956;51.428;6.682;2024-02-28T06:52:29;87.03;;;44.43;;
11797;SDS011;5956;51.428;6.682;2024-02-28T06:54:56;69.90;;;41.67;;
11797;SDS011;5956;51.428;6.682;2024-02-28T06:57:25;80.87;;;42.53;;
11797;SDS011;5956;51.428;6.682;2024-02-28T06:59:52;70.50;;;40.63;;
11797;SDS011;5956;51.428;6.682;2024-02-28T07:02:19;81.13;;;43.77;;
11797;SDS011;5956;51.428;6.682;2024-02-28T07:04:47;79.13;;;39.47;;
11797;SDS011;5956;51.428;6.682;2024-02-28T07:07:13;69.90;;;40.83;;
11797;SDS011;5956;51.428;6.682;2024-02-28T07:09:40;74.03;;;41.43;;
11797;SDS011;5956;51.428;6.682;2024-02-28T07:12:07;77.23;;;40.83;;
11797;SDS011;5956;51.428;6.682;2024-02-28T07:14:36;71.47;;;38.70;;
11797;SDS011;5956;51.428;6.682;2024-02-28T07:17:03;79.83;;;40.00;;
11797;SDS011;5956;51.428;6.682;2024-02-28T07:19:32;83.13;;;43.07;;
11797;SDS011;5956;51.428;6.682;2024-02-28T07:22:00;76.00;;;41.23;;
11797;SDS011;5956;51.428;6.682;2024-02-28T07:24:28;104.17;;;43.70;;
11797;SDS011;5956;51.428;6.682;2024-02-28T07:26:54;84.73;;;42.30;;
11797;SDS011;5956;51.428;6.682;2024-02-28T07:29:22;82.93;;;41.30;;
11797;SDS011;5956;51.428;6.682;2024-02-28T07:31:50;84.40;;;41.90;;
11797;SDS011;5956;51.428;6.682;2024-02-28T07:34:17;87.50;;;42.90;;
11797;SDS011;5956;51.428;6.682;2024-02-28T07:36:44;90.27;;;44.87;;
11797;SDS011;5956;51.428;6.682;2024-02-28T07:39:10;90.27;;;44.27;;
11797;SDS011;5956;51.428;6.682;2024-02-28T07:41:37;94.83;;;44.63;;
11797;SDS011;5956;51.428;6.682;2024-02-28T07:44:05;93.63;;;44.73;;
11797;SDS011;5956;51.428;6.682;2024-02-28T07:46:32;91.10;;;44.13;;
11797;SDS011;5956;51.428;6.682;2024-02-28T07:49:01;101.67;;;45.47;;
11797;SDS011;5956;51.428;6.682;2024-02-28T07:51:28;102.47;;;46.03;;
11797;SDS011;5956;51.428;6.682;2024-02-28T07:53:55;98.67;;;45.77;;
11797;SDS011;5956;51.428;6.682;2024-02-28T07:56:22;104.93;;;47.80;;
11797;SDS011;5956;51.428;6.682;2024-02-28T07:58:48;106.43;;;49.00;;
11797;SDS011;5956;51.428;6.682;2024-02-28T08:04:38;112.03;;;49.43;;
11797;SDS011;5956;51.428;6.682;2024-02-28T08:07:05;104.20;;;49.00;;
11797;SDS011;5956;51.428;6.682;2024-02-28T08:09:32;100.73;;;46.40;;
11797;SDS011;5956;51.428;6.682;2024-02-28T08:11:59;108.53;;;47.63;;
11797;SDS011;5956;51.428;6.682;2024-02-28T08:14:26;95.80;;;45.90;;
11797;SDS011;5956;51.428;6.682;2024-02-28T08:16:53;102.80;;;48.90;;
11797;SDS011;5956;51.428;6.682;2024-02-28T08:19:20;98.07;;;47.40;;
11797;SDS011;5956;51.428;6.682;2024-02-28T08:21:49;101.03;;;46.90;;
11797;SDS011;5956;51.428;6.682;2024-02-28T08:24:16;97.80;;;45.53;;
11797;SDS011;5956;51.428;6.682;2024-02-28T08:26:43;94.30;;;47.10;;
11797;SDS011;5956;51.428;6.682;2024-02-28T08:29:10;89.03;;;44.53;;
11797;SDS011;5956;51.428;6.682;2024-02-28T08:31:40;84.67;;;44.23;;
11797;SDS011;5956;51.428;6.682;2024-02-28T08:34:08;92.00;;;46.00;;
11797;SDS011;5956;51.428;6.682;2024-02-28T08:36:36;97.73;;;44.60;;
11797;SDS011;5956;51.428;6.682;2024-02-28T08:39:04;86.47;;;44.67;;
11797;SDS011;5956;51.428;6.682;2024-02-28T08:41:31;94.13;;;45.07;;
11797;SDS011;5956;51.428;6.682;2024-02-28T08:43:58;89.10;;;43.73;;
11797;SDS011;5956;51.428;6.682;2024-02-28T08:46:25;85.07;;;43.27;;
11797;SDS011;5956;51.428;6.682;2024-02-28T08:48:52;85.37;;;42.27;;
11797;SDS011;5956;51.428;6.682;2024-02-28T08:51:18;86.43;;;42.80;;
11797;SDS011;5956;51.428;6.682;2024-02-28T08:53:45;81.17;;;41.60;;
11797;SDS011;5956;51.428;6.682;2024-02-28T08:56:13;80.23;;;40.20;;
11797;SDS011;5956;51.428;6.682;2024-02-28T08:58:40;78.73;;;39.90;;
11797;SDS011;5956;51.428;6.682;2024-02-28T09:01:07;72.97;;;40.87;;
11797;SDS011;5956;51.428;6.682;2024-02-28T09:03:33;73.90;;;39.60;;
11797;SDS011;5956;51.428;6.682;2024-02-28T09:06:00;70.30;;;39.47;;
11797;SDS011;5956;51.428;6.682;2024-02-28T09:08:27;70.97;;;40.03;;
11797;SDS011;5956;51.428;6.682;2024-02-28T09:10:54;81.57;;;43.53;;
11797;SDS011;5956;51.428;6.682;2024-02-28T09:13:22;83.67;;;42.37;;
11797;SDS011;5956;51.428;6.682;2024-02-28T09:15:49;71.20;;;39.00;;
11797;SDS011;5956;51.428;6.682;2024-02-28T09:18:16;81.57;;;39.10;;
11797;SDS011;5956;51.428;6.682;2024-02-28T09:20:42;70.40;;;37.57;;
11797;SDS011;5956;51.428;6.682;2024-02-28T09:23:09;63.77;;;37.20;;
11797;SDS011;5956;51.428;6.682;2024-02-28T09:25:36;63.30;;;36.77;;
11797;SDS011;5956;51.428;6.682;2024-02-28T09:28:03;66.53;;;35.83;;
11797;SDS011;5956;51.428;6.682;2024-02-28T09:30:32;67.90;;;37.07;;
11797;SDS011;5956;51.428;6.682;2024-02-28T09:33:00;62.03;;;35.60;;
11797;SDS011;5956;51.428;6.682;2024-02-28T09:35:27;65.17;;;36.30;;
11797;SDS011;5956;51.428;6.682;2024-02-28T09:37:53;66.00;;;35.57;;
11797;SDS011;5956;51.428;6.682;2024-02-28T09:40:20;66.33;;;37.27;;
11797;SDS011;5956;51.428;6.682;2024-02-28T09:42:48;69.00;;;38.00;;
11797;SDS011;5956;51.428;6.682;2024-02-28T09:45:19;68.10;;;36.57;;
11797;SDS011;5956;51.428;6.682;2024-02-28T09:47:48;69.70;;;38.50;;
11797;SDS011;5956;51.428;6.682;2024-02-28T09:50:15;68.07;;;38.87;;
11797;SDS011;5956;51.428;6.682;2024-02-28T09:52:42;68.20;;;39.17;;
11797;SDS011;5956;51.428;6.682;2024-02-28T09:55:10;62.50;;;37.63;;
11797;SDS011;5956;51.428;6.682;2024-02-28T09:57:37;66.40;;;39.87;;
11797;SDS011;5956;51.428;6.682;2024-02-28T10:00:05;69.43;;;38.93;;
11797;SDS011;5956;51.428;6.682;2024-02-28T10:02:34;71.93;;;38.00;;
11797;SDS011;5956;51.428;6.682;2024-02-28T10:05:04;68.17;;;38.57;;
11797;SDS011;5956;51.428;6.682;2024-02-28T10:07:31;66.73;;;38.97;;
11797;SDS011;5956;51.428;6.682;2024-02-28T10:09:58;65.03;;;38.70;;
11797;SDS011;5956;51.428;6.682;2024-02-28T10:12:25;71.30;;;39.03;;
11797;SDS011;5956;51.428;6.682;2024-02-28T10:14:52;71.10;;;38.27;;
11797;SDS011;5956;51.428;6.682;2024-02-28T10:17:18;67.80;;;38.30;;
11797;SDS011;5956;51.428;6.682;2024-02-28T10:19:45;64.67;;;38.20;;
11797;SDS011;5956;51.428;6.682;2024-02-28T10:22:13;65.20;;;36.93;;
11797;SDS011;5956;51.428;6.682;2024-02-28T10:24:40;27.77;;;18.77;;
11797;SDS011;5956;51.428;6.682;2024-02-28T10:27:07;61.90;;;36.07;;
11797;SDS011;5956;51.428;6.682;2024-02-28T10:29:34;47.50;;;30.30;;
11797;SDS011;5956;51.428;6.682;2024-02-28T10:32:00;43.13;;;28.17;;
11797;SDS011;5956;51.428;6.682;2024-02-28T10:34:28;55.53;;;34.30;;
11797;SDS011;5956;51.428;6.682;2024-02-28T10:36:56;51.67;;;32.43;;
11797;SDS011;5956;51.428;6.682;2024-02-28T10:39:25;50.77;;;31.63;;
11797;SDS011;5956;51.428;6.682;2024-02-28T10:41:53;51.63;;;31.93;;
11797;SDS011;5956;51.428;6.682;2024-02-28T10:44:21;52.43;;;32.87;;
11797;SDS011;5956;51.428;6.682;2024-02-28T10:46:48;54.77;;;33.60;;
11797;SDS011;5956;51.428;6.682;2024-02-28T10:49:15;61.87;;;37.07;;
11797;SDS011;5956;51.428;6.682;2024-02-28T10:51:43;54.83;;;33.63;;
11797;SDS011;5956;51.428;6.682;2024-02-28T10:54:12;58.60;;;36.70;;
11797;SDS011;5956;51.428;6.682;2024-02-28T10:56:41;57.40;;;35.20;;
11797;SDS011;5956;51.428;6.682;2024-02-28T10:59:09;59.37;;;36.93;;
11797;SDS011;5956;51.428;6.682;2024-02-28T11:01:37;57.07;;;34.93;;
11797;SDS011;5956;51.428;6.682;2024-02-28T11:04:07;56.47;;;35.27;;
11797;SDS011;5956;51.428;6.682;2024-02-28T11:06:34;53.93;;;34.13;;
11797;SDS011;5956;51.428;6.682;2024-02-28T11:09:01;56.93;;;34.03;;
11797;SDS011;5956;51.428;6.682;2024-02-28T11:11:30;57.03;;;34.53;;
11797;SDS011;5956;51.428;6.682;2024-02-28T11:13:59;57.33;;;32.57;;
11797;SDS011;5956;51.428;6.682;2024-02-28T11:16:27;23.63;;;17.73;;
11797;SDS011;5956;51.428;6.682;2024-02-28T11:18:56;57.93;;;32.37;;
11797;SDS011;5956;51.428;6.682;2024-02-28T11:21:24;53.43;;;32.77;;
11797;SDS011;5956;51.428;6.682;2024-02-28T11:23:52;53.30;;;32.93;;
11797;SDS011;5956;51.428;6.682;2024-02-28T11:26:18;53.17;;;32.47;;
11797;SDS011;5956;51.428;6.682;2024-02-28T11:28:47;50.40;;;32.53;;
11797;SDS011;5956;51.428;6.682;2024-02-28T11:31:15;46.53;;;29.70;;
11797;SDS011;5956;51.428;6.682;2024-02-28T11:33:43;50.10;;;30.97;;
11797;SDS011;5956;51.428;6.682;2024-02-28T11:36:11;46.03;;;30.63;;
11797;SDS011;5956;51.428;6.682;2024-02-28T11:38:39;46.40;;;30.57;;
11797;SDS011;5956;51.428;6.682;2024-02-28T11:41:07;48.00;;;31.03;;
11797;SDS011;5956;51.428;6.682;2024-02-28T11:43:34;48.17;;;30.00;;
11797;SDS011;5956;51.428;6.682;2024-02-28T11:46:01;47.30;;;30.63;;
11797;SDS011;5956;51.428;6.682;2024-02-28T11:48:35;44.30;;;26.60;;
11797;SDS011;5956;51.428;6.682;2024-02-28T11:51:02;29.17;;;19.60;;
11797;SDS011;5956;51.428;6.682;2024-02-28T11:53:29;92.70;;;83.07;;
11797;SDS011;5956;51.428;6.682;2024-02-28T11:55:56;42.80;;;29.83;;
11797;SDS011;5956;51.428;6.682;2024-02-28T11:58:23;40.00;;;26.47;;
11797;SDS011;5956;51.428;6.682;2024-02-28T12:00:51;39.70;;;25.60;;
11797;SDS011;5956;51.428;6.682;2024-02-28T12:03:20;38.03;;;26.27;;
11797;SDS011;5956;51.428;6.682;2024-02-28T12:05:50;36.03;;;26.40;;
11797;SDS011;5956;51.428;6.682;2024-02-28T12:08:18;37.37;;;26.50;;
11797;SDS011;5956;51.428;6.682;2024-02-28T12:10:45;40.37;;;27.20;;
11797;SDS011;5956;51.428;6.682;2024-02-28T12:13:15;37.40;;;26.27;;
11797;SDS011;5956;51.428;6.682;2024-02-28T12:15:43;33.17;;;23.80;;
11797;SDS011;5956;51.428;6.682;2024-02-28T12:18:11;32.90;;;23.30;;
11797;SDS011;5956;51.428;6.682;2024-02-28T12:20:38;35.73;;;25.00;;
11797;SDS011;5956;51.428;6.682;2024-02-28T12:23:07;37.23;;;24.27;;
11797;SDS011;5956;51.428;6.682;2024-02-28T12:25:35;36.17;;;24.53;;
11797;SDS011;5956;51.428;6.682;2024-02-28T12:28:03;37.57;;;25.77;;
11797;SDS011;5956;51.428;6.682;2024-02-28T12:30:38;35.70;;;24.67;;
11797;SDS011;5956;51.428;6.682;2024-02-28T12:33:06;37.00;;;25.70;;
11797;SDS011;5956;51.428;6.682;2024-02-28T12:35:35;36.37;;;25.37;;
11797;SDS011;5956;51.428;6.682;2024-02-28T12:38:12;34.80;;;23.63;;
11797;SDS011;5956;51.428;6.682;2024-02-28T12:40:40;31.30;;;23.43;;
11797;SDS011;5956;51.428;6.682;2024-02-28T12:43:08;31.10;;;22.90;;
11797;SDS011;5956;51.428;6.682;2024-02-28T12:45:35;31.90;;;23.10;;
11797;SDS011;5956;51.428;6.682;2024-02-28T12:48:02;29.63;;;22.60;;
11797;SDS011;5956;51.428;6.682;2024-02-28T12:50:31;30.00;;;22.60;;
11797;SDS011;5956;51.428;6.682;2024-02-28T12:53:00;29.27;;;22.57;;
11797;SDS011;5956;51.428;6.682;2024-02-28T12:55:28;30.17;;;22.90;;
11797;SDS011;5956;51.428;6.682;2024-02-28T12:57:55;30.57;;;23.33;;
11797;SDS011;5956;51.428;6.682;2024-02-28T13:00:24;31.40;;;23.73;;
11797;SDS011;5956;51.428;6.682;2024-02-28T13:02:51;30.77;;;22.77;;
11797;SDS011;5956;51.428;6.682;2024-02-28T13:05:22;29.80;;;22.60;;
11797;SDS011;5956;51.428;6.682;2024-02-28T13:07:49;30.30;;;23.00;;
11797;SDS011;5956;51.428;6.682;2024-02-28T13:10:18;28.53;;;22.17;;
11797;SDS011;5956;51.428;6.682;2024-02-28T13:12:48;25.33;;;22.27;;
11797;SDS011;5956;51.428;6.682;2024-02-28T13:15:15;30.70;;;23.97;;
11797;SDS011;5956;51.428;6.682;2024-02-28T13:17:42;29.80;;;23.43;;
11797;SDS011;5956;51.428;6.682;2024-02-28T13:20:12;28.80;;;23.70;;
11797;SDS011;5956;51.428;6.682;2024-02-28T13:22:38;30.27;;;22.47;;
11797;SDS011;5956;51.428;6.682;2024-02-28T13:25:05;32.00;;;23.03;;
11797;SDS011;5956;51.428;6.682;2024-02-28T13:27:32;29.03;;;23.40;;
11797;SDS011;5956;51.428;6.682;2024-02-28T13:30:00;28.40;;;21.10;;
11797;SDS011;5956;51.428;6.682;2024-02-28T13:32:27;30.17;;;22.67;;
11797;SDS011;5956;51.428;6.682;2024-02-28T13:34:56;26.37;;;21.97;;
11797;SDS011;5956;51.428;6.682;2024-02-28T13:37:27;30.40;;;22.83;;
11797;SDS011;5956;51.428;6.682;2024-02-28T13:39:53;25.80;;;21.03;;
11797;SDS011;5956;51.428;6.682;2024-02-28T13:42:23;28.90;;;21.93;;
11797;SDS011;5956;51.428;6.682;2024-02-28T13:44:50;27.20;;;21.00;;
11797;SDS011;5956;51.428;6.682;2024-02-28T13:47:18;27.40;;;20.83;;
11797;SDS011;5956;51.428;6.682;2024-02-28T13:49:45;28.80;;;21.43;;
11797;SDS011;5956;51.428;6.682;2024-02-28T13:52:12;29.33;;;22.23;;
11797;SDS011;5956;51.428;6.682;2024-02-28T13:54:39;26.57;;;21.97;;
11797;SDS011;5956;51.428;6.682;2024-02-28T13:57:09;28.03;;;22.10;;
11797;SDS011;5956;51.428;6.682;2024-02-28T13:59:40;26.80;;;22.07;;
11797;SDS011;5956;51.428;6.682;2024-02-28T14:02:08;28.83;;;21.47;;
11797;SDS011;5956;51.428;6.682;2024-02-28T14:04:40;23.57;;;19.20;;
11797;SDS011;5956;51.428;6.682;2024-02-28T14:07:20;22.90;;;16.70;;
11797;SDS011;5956;51.428;6.682;2024-02-28T14:09:47;23.83;;;17.83;;
11797;SDS011;5956;51.428;6.682;2024-02-28T14:12:15;21.90;;;17.30;;
11797;SDS011;5956;51.428;6.682;2024-02-28T14:14:42;25.47;;;19.07;;
11797;SDS011;5956;51.428;6.682;2024-02-28T14:17:09;26.53;;;19.23;;
11797;SDS011;5956;51.428;6.682;2024-02-28T14:19:37;25.47;;;19.07;;
11797;SDS011;5956;51.428;6.682;2024-02-28T14:22:04;22.90;;;18.33;;
11797;SDS011;5956;51.428;6.682;2024-02-28T14:24:31;22.13;;;17.40;;
11797;SDS011;5956;51.428;6.682;2024-02-28T14:26:58;26.00;;;18.83;;
11797;SDS011;5956;51.428;6.682;2024-02-28T14:29:26;22.47;;;16.67;;
11797;SDS011;5956;51.428;6.682;2024-02-28T14:31:54;25.17;;;18.27;;
11797;SDS011;5956;51.428;6.682;2024-02-28T14:34:21;26.13;;;18.23;;
11797;SDS011;5956;51.428;6.682;2024-02-28T14:36:49;26.10;;;17.13;;
11797;SDS011;5956;51.428;6.682;2024-02-28T14:39:16;18.53;;;14.57;;